CYPH

Inukjuak Airport

Inukjuak, Quebec, Canada
METAR CYPH 250022Z AUTO 33007KT 4SM BR CLR M12/M14 A3009 RMK SLP194
Observed Flight Rules
Apr-25 @ 00:22 UTC (14 minutes ago) Marginal Visual Flight Rules
Wind Visibility Clouds Conditions
330° at 7 knots 4 miles
  • Clear skies
  • Mist
Temperatures Readings
Current -12°C / 10°F
Dewpoint -14°C / 7°F
Humidity 85%
Altimeter 30.09" Hg
Pressure 1019.4 hPa
Elevation 3
METAR CYPH 250022Z AUTO 33007KT 4SM BR CLR M12/M14 A3009 RMK SLP194
Observed Flight Rules
Apr-25 @ 00:22 UTC
(14 minutes ago)
MVFR
Wind Visibility
330° at 7 knots 4 miles
Clouds
  • Clear skies
Conditions
  • Mist
Temperature Dewpoint
-12°C / 10°F -14°C / 7°F
Humidity Altimeter Pressure
85% 30.09" Hg 1019.4 hPa